Time;durP1;ratioP1;P1;durP2;ratioP2;P2;SDS_P1;SDS_P2;PMS_P1;PMS_P2;Temp;Humidity;BMP_temperature;BMP_pressure;BME280_temperature;BME280_humidity;BME280_pressure;Samples;Min_cycle;Max_cycle;Signal;HPM_P1;HPM_P2
2023/04/06 00:00:08;;;;;;;8.57;5.72;;;3.10;99.90;;;;;;5071847;28;20044;-62
2023/04/06 00:02:35;;;;;;;9.10;5.80;;;3.10;99.90;;;;;;5071377;28;20540;-63
2023/04/06 00:05:04;;;;;;;9.15;5.60;;;3.10;99.90;;;;;;5072893;28;20060;-61
2023/04/06 00:07:33;;;;;;;8.73;6.00;;;3.10;99.90;;;;;;5073317;28;20048;-61
2023/04/06 00:09:59;;;;;;;10.20;5.97;;;3.10;99.90;;;;;;5070453;28;20053;-61
2023/04/06 00:12:26;;;;;;;9.05;6.05;;;3.00;99.90;;;;;;5072826;28;20052;-61
2023/04/06 00:14:53;;;;;;;9.82;5.78;;;3.00;99.90;;;;;;5072892;28;20044;-61
2023/04/06 00:17:20;;;;;;;8.35;5.60;;;3.10;99.90;;;;;;5072312;28;20086;-62
2023/04/06 00:19:47;;;;;;;7.05;5.45;;;3.00;99.90;;;;;;5071860;28;20099;-61
2023/04/06 00:22:15;;;;;;;8.73;6.13;;;3.00;99.90;;;;;;5071210;28;20056;-62
2023/04/06 00:24:42;;;;;;;9.50;6.05;;;3.00;99.90;;;;;;5072150;28;20056;-62
2023/04/06 00:27:09;;;;;;;7.35;5.22;;;3.00;99.90;;;;;;5072723;28;20057;-61
2023/04/06 00:29:36;;;;;;;9.85;6.00;;;3.00;99.90;;;;;;5071619;28;20511;-62
2023/04/06 00:32:03;;;;;;;7.82;5.45;;;2.90;99.90;;;;;;5071519;28;20522;-61
2023/04/06 00:34:30;;;;;;;10.70;6.30;;;2.90;99.90;;;;;;5071436;28;20094;-61
2023/04/06 00:36:57;;;;;;;9.40;6.57;;;2.90;99.90;;;;;;5072022;28;20439;-62
2023/04/06 00:39:25;;;;;;;10.13;6.68;;;2.90;99.90;;;;;;5071418;28;20126;-61
2023/04/06 00:41:53;;;;;;;8.77;5.75;;;2.90;99.90;;;;;;5072491;28;20166;-61
2023/04/06 00:44:20;;;;;;;8.80;6.15;;;2.90;99.90;;;;;;5068990;28;20098;-61
2023/04/06 00:46:47;;;;;;;8.45;5.93;;;2.80;99.90;;;;;;5072501;28;20056;-63
2023/04/06 00:49:14;;;;;;;11.02;6.35;;;2.80;99.90;;;;;;5072601;28;20442;-63
2023/04/06 00:51:41;;;;;;;8.93;5.97;;;2.80;99.90;;;;;;5070183;28;20526;-62
2023/04/06 00:54:08;;;;;;;8.65;6.40;;;2.80;99.90;;;;;;5070859;28;20037;-62
2023/04/06 00:56:36;;;;;;;10.90;7.10;;;3.10;99.90;;;;;;5072220;28;20040;-62
2023/04/06 00:59:03;;;;;;;10.27;5.90;;;2.70;99.90;;;;;;5071864;28;20439;-62
2023/04/06 01:01:32;;;;;;;8.70;6.43;;;2.70;99.90;;;;;;5071192;28;20056;-63
2023/04/06 01:03:59;;;;;;;8.25;5.82;;;2.70;99.90;;;;;;5070572;28;20131;-62
2023/04/06 01:06:26;;;;;;;10.57;6.00;;;2.70;99.90;;;;;;5071845;28;20044;-62
2023/04/06 01:08:53;;;;;;;11.32;6.40;;;2.70;99.90;;;;;;5071951;28;20463;-62
2023/04/06 01:11:20;;;;;;;9.05;6.25;;;2.70;99.90;;;;;;5071968;28;20110;-61
2023/04/06 01:13:49;;;;;;;9.30;5.93;;;2.70;99.90;;;;;;5071324;28;20044;-62
2023/04/06 01:16:16;;;;;;;9.27;6.00;;;2.60;99.90;;;;;;5070967;28;20079;-63
2023/04/06 01:18:43;;;;;;;8.80;5.80;;;2.60;99.90;;;;;;5070902;28;20106;-63
2023/04/06 01:21:15;;;;;;;10.38;6.22;;;2.60;99.90;;;;;;5070293;28;20048;-63
2023/04/06 01:23:44;;;;;;;10.60;6.35;;;2.60;99.90;;;;;;5070585;28;20107;-63
2023/04/06 01:26:11;;;;;;;8.45;6.32;;;2.60;99.90;;;;;;5071352;28;20512;-62
2023/04/06 01:28:38;;;;;;;7.10;5.78;;;2.80;99.90;;;;;;5072028;28;20055;-62
2023/04/06 01:31:07;;;;;;;10.00;5.93;;;2.60;99.90;;;;;;5071817;28;20500;-63
2023/04/06 01:33:34;;;;;;;8.45;5.78;;;2.50;99.90;;;;;;5069730;28;20106;-62
2023/04/06 01:36:01;;;;;;;8.18;6.07;;;2.50;99.90;;;;;;5071630;28;20501;-62
2023/04/06 01:38:28;;;;;;;9.45;6.50;;;2.60;99.90;;;;;;5071773;28;20036;-63
2023/04/06 01:40:56;;;;;;;9.00;5.90;;;2.50;99.90;;;;;;5070237;28;20102;-62
2023/04/06 01:43:23;;;;;;;8.68;6.47;;;2.50;99.90;;;;;;5071634;28;20051;-63
2023/04/06 01:45:50;;;;;;;8.07;5.65;;;2.50;99.90;;;;;;5070805;28;20543;-63
2023/04/06 01:48:17;;;;;;;12.27;6.13;;;2.50;99.90;;;;;;5069997;28;20463;-62
2023/04/06 01:50:44;;;;;;;9.98;6.50;;;2.50;99.90;;;;;;5070527;28;20052;-62
2023/04/06 01:53:11;;;;;;;9.82;6.20;;;2.40;99.90;;;;;;5070388;28;20048;-62
2023/04/06 01:55:38;;;;;;;8.68;5.95;;;2.40;99.90;;;;;;5074159;28;20132;-61
2023/04/06 01:58:06;;;;;;;11.75;6.32;;;2.30;99.90;;;;;;5074598;28;20044;-62
2023/04/06 02:00:33;;;;;;;8.75;6.22;;;2.30;99.90;;;;;;5075375;28;20049;-63
2023/04/06 02:03:00;;;;;;;13.27;6.35;;;2.30;99.90;;;;;;5074669;28;20451;-63
2023/04/06 02:05:28;;;;;;;9.48;6.75;;;2.30;99.90;;;;;;5074121;28;20056;-62
2023/04/06 02:07:55;;;;;;;9.52;5.80;;;2.30;99.90;;;;;;5075499;28;20121;-61
2023/04/06 02:10:22;;;;;;;8.32;6.32;;;2.20;99.90;;;;;;5073640;28;20048;-62
2023/04/06 02:12:49;;;;;;;9.27;6.55;;;2.20;99.90;;;;;;5075214;28;20044;-63
2023/04/06 02:15:17;;;;;;;9.68;6.68;;;2.20;99.90;;;;;;5073175;28;20056;-63
2023/04/06 02:17:44;;;;;;;14.55;6.93;;;2.20;99.90;;;;;;5073497;28;20110;-64
2023/04/06 02:20:11;;;;;;;9.40;6.47;;;2.20;99.90;;;;;;5075376;28;20052;-64
2023/04/06 02:22:38;;;;;;;10.07;6.60;;;2.20;99.90;;;;;;5073286;28;20143;-63
2023/04/06 02:25:06;;;;;;;9.63;6.22;;;2.20;99.90;;;;;;5073885;28;20040;-64
2023/04/06 02:27:33;;;;;;;11.80;6.38;;;2.10;99.90;;;;;;5074070;28;20426;-63
2023/04/06 02:30:00;;;;;;;10.60;7.03;;;2.10;99.90;;;;;;5074348;28;20051;-63
2023/04/06 02:32:28;;;;;;;9.33;6.57;;;2.10;99.90;;;;;;5073701;28;20101;-64
2023/04/06 02:34:55;;;;;;;8.95;6.15;;;2.10;99.90;;;;;;5074070;28;20075;-62
2023/04/06 02:37:23;;;;;;;9.55;6.97;;;2.10;99.90;;;;;;5073040;28;20491;-62
2023/04/06 02:39:49;;;;;;;12.00;7.15;;;2.10;99.90;;;;;;5073799;28;20040;-62
2023/04/06 02:42:16;;;;;;;9.50;6.47;;;2.10;99.90;;;;;;5074815;28;20109;-62
2023/04/06 02:44:43;;;;;;;14.55;6.85;;;2.00;99.90;;;;;;5074062;28;20511;-62
2023/04/06 02:47:10;;;;;;;10.52;6.55;;;2.10;99.90;;;;;;5073733;28;20389;-62
2023/04/06 02:49:38;;;;;;;12.73;6.60;;;2.00;99.90;;;;;;5073640;28;20052;-62
2023/04/06 02:52:05;;;;;;;11.70;6.70;;;2.20;99.90;;;;;;5074182;28;20454;-62
2023/04/06 02:54:32;;;;;;;10.05;6.85;;;2.00;99.90;;;;;;5073165;28;20044;-63
2023/04/06 02:56:59;;;;;;;11.85;6.93;;;2.00;99.90;;;;;;5073484;28;20052;-62
2023/04/06 02:59:26;;;;;;;10.77;7.22;;;2.00;99.90;;;;;;5073756;28;20044;-61
2023/04/06 03:01:53;;;;;;;13.02;6.97;;;1.90;99.90;;;;;;5073224;28;20052;-61
2023/04/06 03:04:22;;;;;;;10.13;6.90;;;1.90;99.90;;;;;;5074076;28;20052;-61
2023/04/06 03:06:50;;;;;;;12.27;6.78;;;1.90;99.90;;;;;;5071092;28;20472;-61
2023/04/06 03:09:17;;;;;;;13.18;6.93;;;1.90;99.90;;;;;;5073214;28;20048;-61
2023/04/06 03:11:44;;;;;;;14.85;7.18;;;1.90;99.90;;;;;;5072260;28;20049;-62
2023/04/06 03:14:11;;;;;;;14.10;7.07;;;1.90;99.90;;;;;;5070585;28;20052;-62
2023/04/06 03:16:38;;;;;;;8.38;6.25;;;1.90;99.90;;;;;;5074320;28;20057;-61
2023/04/06 03:19:04;;;;;;;13.52;7.32;;;2.50;99.90;;;;;;5073623;28;20049;-62
2023/04/06 03:21:31;;;;;;;10.07;6.45;;;1.80;99.90;;;;;;5072990;28;20064;-61
2023/04/06 03:23:59;;;;;;;11.35;7.32;;;2.00;99.90;;;;;;5072506;28;20082;-61
2023/04/06 03:26:26;;;;;;;10.80;6.45;;;1.80;99.90;;;;;;5072364;28;20056;-62
2023/04/06 03:28:53;;;;;;;14.57;7.30;;;1.80;99.90;;;;;;5074069;28;20052;-61
2023/04/06 03:31:20;;;;;;;10.75;6.70;;;1.80;99.90;;;;;;5070672;28;20048;-61
2023/04/06 03:33:47;;;;;;;11.43;6.82;;;1.70;99.90;;;;;;5071841;28;20095;-62
2023/04/06 03:36:14;;;;;;;9.52;7.03;;;1.70;99.90;;;;;;5071941;28;20048;-62
2023/04/06 03:38:41;;;;;;;13.57;7.47;;;1.60;99.90;;;;;;5073987;28;20377;-61
2023/04/06 03:41:09;;;;;;;11.80;7.15;;;1.70;99.90;;;;;;5072015;28;20109;-62
2023/04/06 03:43:36;;;;;;;10.77;6.72;;;1.70;99.90;;;;;;5073353;28;20040;-62
2023/04/06 03:46:03;;;;;;;10.25;6.68;;;1.60;99.90;;;;;;5073608;28;20048;-62
2023/04/06 03:48:31;;;;;;;9.48;6.22;;;1.60;99.90;;;;;;5071899;28;20144;-62
2023/04/06 03:50:57;;;;;;;10.68;6.63;;;1.70;99.90;;;;;;5073516;28;20095;-62
2023/04/06 03:53:24;;;;;;;10.57;7.20;;;1.60;99.90;;;;;;5062085;28;20044;-62
2023/04/06 03:55:51;;;;;;;8.50;6.60;;;1.60;99.90;;;;;;5099859;28;20136;-62
2023/04/06 03:58:20;;;;;;;11.70;6.60;;;1.60;99.90;;;;;;5069200;28;20052;-61
2023/04/06 04:00:47;;;;;;;10.57;7.05;;;1.60;99.90;;;;;;5070590;28;20123;-63
2023/04/06 04:03:14;;;;;;;9.38;6.57;;;1.60;99.90;;;;;;5069231;28;20044;-62
2023/04/06 04:05:41;;;;;;;12.32;7.45;;;1.50;99.90;;;;;;5069514;28;20057;-62
2023/04/06 04:08:08;;;;;;;11.55;7.80;;;1.40;99.90;;;;;;5069582;28;20414;-62
2023/04/06 04:10:35;;;;;;;10.57;6.75;;;1.40;99.90;;;;;;5071208;28;20107;-61
2023/04/06 04:13:01;;;;;;;10.05;6.07;;;1.40;99.90;;;;;;5070810;28;20048;-62
2023/04/06 04:15:30;;;;;;;9.30;6.70;;;1.40;99.90;;;;;;5069534;28;20098;-61
2023/04/06 04:17:56;;;;;;;11.18;6.25;;;1.40;99.90;;;;;;5071849;28;20060;-61
2023/04/06 04:20:23;;;;;;;9.95;6.40;;;1.40;99.90;;;;;;5068998;28;20052;-60
2023/04/06 04:22:50;;;;;;;9.02;5.75;;;1.50;99.90;;;;;;5068991;28;20044;-63
2023/04/06 04:25:17;;;;;;;9.02;6.60;;;1.50;99.90;;;;;;5068135;28;20051;-62
2023/04/06 04:27:44;;;;;;;10.13;5.85;;;1.50;99.90;;;;;;5070833;28;20044;-62
2023/04/06 04:30:11;;;;;;;9.75;6.13;;;1.50;99.90;;;;;;5067072;28;20074;-61
2023/04/06 04:32:40;;;;;;;10.15;6.40;;;1.40;99.90;;;;;;5070061;28;20044;-61
2023/04/06 04:35:07;;;;;;;11.07;7.45;;;1.50;99.90;;;;;;5068427;28;20047;-63
2023/04/06 04:37:35;;;;;;;11.50;6.45;;;1.40;99.90;;;;;;5070468;28;20121;-61
2023/04/06 04:40:02;;;;;;;9.27;6.60;;;1.40;99.90;;;;;;5068506;28;20048;-62
2023/04/06 04:42:29;;;;;;;8.88;6.40;;;1.40;99.90;;;;;;5070460;28;20045;-62
2023/04/06 04:44:56;;;;;;;8.82;6.05;;;1.40;99.90;;;;;;5066090;28;20418;-62
2023/04/06 04:47:23;;;;;;;9.32;7.38;;;1.50;99.90;;;;;;5070874;28;20052;-65
2023/04/06 04:49:51;;;;;;;7.80;6.05;;;1.40;99.90;;;;;;5069557;28;20044;-66
2023/04/06 04:52:18;;;;;;;10.70;6.53;;;1.40;99.90;;;;;;5099907;28;20048;-62
2023/04/06 04:54:46;;;;;;;13.73;6.90;;;1.40;99.90;;;;;;5069728;28;20102;-62
2023/04/06 04:57:13;;;;;;;9.63;6.53;;;1.40;99.90;;;;;;5069621;28;20056;-60
2023/04/06 04:59:40;;;;;;;9.63;6.07;;;1.40;99.90;;;;;;5071046;28;20389;-62
2023/04/06 05:02:07;;;;;;;8.82;6.28;;;1.40;99.90;;;;;;5065181;28;20063;-61
2023/04/06 05:04:34;;;;;;;9.65;6.38;;;1.40;99.90;;;;;;5069500;28;20114;-61
2023/04/06 05:07:07;;;;;;;16.15;6.35;;;1.40;99.90;;;;;;5098894;28;20087;-61
2023/04/06 05:09:34;;;;;;;8.45;5.80;;;1.50;99.90;;;;;;5069525;28;20052;-62
2023/04/06 05:12:01;;;;;;;9.35;5.50;;;1.50;99.90;;;;;;5068316;28;20151;-61
2023/04/06 05:14:28;;;;;;;14.55;6.05;;;1.50;99.90;;;;;;5071536;28;20401;-60
2023/04/06 05:16:55;;;;;;;12.90;6.10;;;1.50;99.90;;;;;;5068317;28;20561;-61
2023/04/06 05:19:22;;;;;;;8.57;5.82;;;1.60;99.90;;;;;;5070853;28;20506;-61
2023/04/06 05:21:49;;;;;;;9.80;6.80;;;1.70;99.90;;;;;;5068112;28;20052;-62
2023/04/06 05:24:17;;;;;;;13.10;7.05;;;1.60;99.90;;;;;;5071598;28;20078;-61
2023/04/06 05:26:44;;;;;;;13.60;6.57;;;1.60;99.90;;;;;;5065135;28;20094;-61
2023/04/06 05:29:11;;;;;;;8.93;6.15;;;1.70;99.90;;;;;;5071042;28;20053;-62
2023/04/06 05:31:38;;;;;;;9.98;6.38;;;1.70;99.90;;;;;;5066272;28;20052;-62
2023/04/06 05:34:05;;;;;;;10.52;6.82;;;1.70;99.90;;;;;;5061609;28;20443;-61
2023/04/06 05:36:32;;;;;;;12.57;7.28;;;1.80;99.90;;;;;;5069306;28;20041;-61
2023/04/06 05:38:59;;;;;;;8.88;6.35;;;1.80;99.90;;;;;;5070320;28;20044;-61
2023/04/06 05:41:28;;;;;;;10.50;7.30;;;1.90;99.90;;;;;;5100931;28;20060;-61
2023/04/06 05:43:55;;;;;;;10.65;6.00;;;1.90;99.90;;;;;;5068105;28;20052;-61
2023/04/06 05:46:22;;;;;;;11.18;6.82;;;2.00;99.90;;;;;;5068925;28;20128;-61
2023/04/06 05:48:49;;;;;;;9.85;6.72;;;2.00;99.90;;;;;;5068807;28;20394;-62
2023/04/06 05:51:16;;;;;;;13.77;6.63;;;2.10;99.90;;;;;;5070572;28;20511;-61
2023/04/06 05:53:42;;;;;;;9.85;6.20;;;2.10;99.90;;;;;;5068559;28;20451;-63
2023/04/06 05:56:09;;;;;;;15.07;6.90;;;2.20;99.90;;;;;;5070968;28;20049;-62
2023/04/06 05:58:38;;;;;;;8.80;5.95;;;2.30;99.90;;;;;;5069145;28;20549;-61
2023/04/06 06:01:05;;;;;;;11.43;6.85;;;2.30;99.90;;;;;;5068978;28;20060;-60
2023/04/06 06:03:32;;;;;;;8.38;5.82;;;2.50;99.90;;;;;;5069037;28;20053;-62
2023/04/06 06:06:02;;;;;;;14.32;7.15;;;2.50;99.90;;;;;;5071239;28;20400;-62
2023/04/06 06:08:29;;;;;;;9.10;6.65;;;2.60;99.90;;;;;;5068204;28;20059;-61
2023/04/06 06:10:56;;;;;;;11.10;6.50;;;2.70;99.90;;;;;;5070832;28;20491;-62
2023/04/06 06:13:23;;;;;;;11.20;6.78;;;2.70;99.90;;;;;;5069830;28;20384;-61
2023/04/06 06:15:52;;;;;;;8.93;6.10;;;2.90;99.90;;;;;;5070727;28;20044;-61
2023/04/06 06:18:19;;;;;;;9.35;6.53;;;3.10;99.90;;;;;;5069278;28;20044;-62
2023/04/06 06:20:45;;;;;;;10.80;6.85;;;3.40;99.90;;;;;;5065749;28;20577;-61
2023/04/06 06:23:12;;;;;;;12.15;6.68;;;3.80;99.90;;;;;;5064958;28;20125;-62
2023/04/06 06:25:39;;;;;;;11.82;6.72;;;4.40;99.90;;;;;;5069559;28;20049;-61
2023/04/06 06:28:06;;;;;;;6.82;5.38;;;5.20;99.90;;;;;;5069254;28;20044;-62
2023/04/06 06:30:33;;;;;;;9.93;6.10;;;5.90;99.90;;;;;;5064772;28;20044;-62
2023/04/06 06:33:01;;;;;;;10.68;6.30;;;6.40;99.90;;;;;;5069257;28;20397;-62
2023/04/06 06:35:28;;;;;;;8.30;6.25;;;7.10;99.90;;;;;;5066052;28;20041;-63
2023/04/06 06:37:55;;;;;;;11.77;6.28;;;7.50;99.90;;;;;;5069344;28;20400;-63
2023/04/06 06:40:23;;;;;;;9.77;6.30;;;7.90;99.90;;;;;;5066608;28;20051;-63
2023/04/06 06:42:51;;;;;;;8.73;6.32;;;8.40;99.90;;;;;;5070644;28;20090;-62
2023/04/06 06:45:18;;;;;;;10.65;7.03;;;8.90;99.90;;;;;;5071130;28;20068;-63
2023/04/06 06:47:45;;;;;;;9.65;7.00;;;9.30;99.40;;;;;;5103902;28;20103;-62
2023/04/06 06:50:13;;;;;;;8.13;6.13;;;9.50;98.30;;;;;;5071762;28;20059;-62
2023/04/06 06:52:41;;;;;;;9.80;6.38;;;9.80;96.70;;;;;;5071921;28;20102;-62
2023/04/06 06:55:10;;;;;;;10.73;7.15;;;10.20;96.30;;;;;;5071931;28;20466;-62
2023/04/06 06:57:38;;;;;;;8.63;6.55;;;10.10;94.70;;;;;;5073100;28;20106;-62
2023/04/06 07:00:07;;;;;;;10.38;6.65;;;10.50;94.40;;;;;;5070899;28;20064;-62
2023/04/06 07:02:35;;;;;;;11.18;7.03;;;10.70;93.70;;;;;;5072015;28;20810;-62
2023/04/06 07:05:02;;;;;;;11.02;6.22;;;11.20;93.90;;;;;;5066678;28;20080;-62
2023/04/06 07:07:30;;;;;;;9.73;6.35;;;11.20;92.40;;;;;;5070845;28;20067;-62
2023/04/06 07:09:57;;;;;;;8.80;6.43;;;11.40;92.00;;;;;;5072047;28;20055;-63
2023/04/06 07:12:24;;;;;;;9.43;6.85;;;11.50;91.10;;;;;;5065601;28;20052;-62
2023/04/06 07:14:51;;;;;;;8.90;6.28;;;11.90;90.70;;;;;;5071542;28;20041;-62
2023/04/06 07:17:18;;;;;;;8.55;5.85;;;12.10;90.20;;;;;;5071884;28;20048;-62
2023/04/06 07:19:45;;;;;;;9.75;6.63;;;12.30;90.40;;;;;;5072969;28;20052;-62
2023/04/06 07:22:12;;;;;;;8.00;6.28;;;12.70;90.10;;;;;;5073861;28;20048;-62
2023/04/06 07:24:41;;;;;;;7.88;6.65;;;13.30;90.10;;;;;;5073149;28;20037;-62
2023/04/06 07:27:08;;;;;;;8.38;5.90;;;13.50;85.10;;;;;;5072077;28;20122;-62
2023/04/06 07:29:34;;;;;;;9.20;6.18;;;13.80;85.70;;;;;;5072673;28;20056;-61
2023/04/06 07:32:02;;;;;;;8.57;6.30;;;13.80;83.70;;;;;;5073380;28;20496;-61
2023/04/06 07:34:28;;;;;;;10.15;6.47;;;13.90;83.70;;;;;;5072336;28;20090;-66
2023/04/06 07:36:56;;;;;;;11.27;6.68;;;13.90;81.80;;;;;;5072722;28;20052;-62
2023/04/06 07:39:23;;;;;;;8.60;6.47;;;14.00;81.20;;;;;;5072896;28;20048;-62
2023/04/06 07:41:51;;;;;;;7.68;5.95;;;14.40;81.20;;;;;;5073645;28;20048;-62
2023/04/06 07:44:18;;;;;;;9.40;6.53;;;13.90;79.80;;;;;;5072164;28;20040;-62
2023/04/06 07:46:45;;;;;;;10.93;6.00;;;15.20;80.70;;;;;;5072603;28;20459;-62
2023/04/06 07:49:12;;;;;;;9.45;6.32;;;15.40;79.40;;;;;;5073671;28;20044;-63
2023/04/06 07:51:39;;;;;;;9.18;6.38;;;15.40;74.70;;;;;;5073413;28;20051;-62
2023/04/06 07:54:07;;;;;;;9.18;6.57;;;15.70;78.00;;;;;;5069573;28;20052;-62
2023/04/06 07:56:33;;;;;;;9.68;6.45;;;15.50;75.20;;;;;;5051055;28;20106;-63
2023/04/06 07:59:02;;;;;;;8.68;6.85;;;15.70;74.40;;;;;;5042964;28;20048;-62
2023/04/06 08:01:30;;;;;;;8.73;6.55;;;15.90;73.90;;;;;;5072649;28;20094;-62
2023/04/06 08:03:58;;;;;;;7.00;5.93;;;16.00;74.60;;;;;;5071787;28;20060;-62
2023/04/06 08:06:26;;;;;;;10.38;7.25;;;16.20;74.50;;;;;;5073503;28;20080;-62
2023/04/06 08:08:52;;;;;;;9.05;6.30;;;16.20;73.20;;;;;;5071080;28;20053;-62
2023/04/06 08:11:19;;;;;;;8.60;6.78;;;16.40;72.00;;;;;;5073257;28;20040;-62
2023/04/06 08:13:46;;;;;;;11.88;6.43;;;16.80;72.00;;;;;;5072848;28;20102;-63
2023/04/06 08:16:15;;;;;;;9.32;6.90;;;16.60;70.60;;;;;;5070937;28;20053;-63
2023/04/06 08:18:42;;;;;;;9.93;6.20;;;16.90;71.60;;;;;;5073023;28;20040;-63
2023/04/06 08:21:09;;;;;;;11.93;7.13;;;17.00;71.30;;;;;;5072744;28;20052;-62
2023/04/06 08:23:35;;;;;;;8.70;6.50;;;17.40;71.10;;;;;;5071752;28;20577;-61
2023/04/06 08:26:02;;;;;;;9.73;6.45;;;17.30;69.70;;;;;;5071447;28;20048;-62
2023/04/06 08:28:29;;;;;;;10.23;6.97;;;17.40;69.60;;;;;;5071813;28;20048;-63
2023/04/06 08:30:56;;;;;;;9.45;6.63;;;17.20;69.40;;;;;;5071590;28;20106;-63
2023/04/06 08:33:25;;;;;;;9.82;6.78;;;17.50;68.90;;;;;;5070113;28;20052;-62
2023/04/06 08:35:52;;;;;;;9.55;6.43;;;17.70;68.80;;;;;;5071871;28;20118;-63
2023/04/06 08:38:18;;;;;;;10.00;7.53;;;17.50;68.10;;;;;;5071131;28;20052;-63
2023/04/06 08:40:47;;;;;;;8.10;6.13;;;17.90;69.20;;;;;;5072448;28;20106;-63
2023/04/06 08:43:15;;;;;;;9.13;6.68;;;18.20;67.20;;;;;;5070454;28;20044;-63
2023/04/06 08:45:43;;;;;;;7.47;6.13;;;18.60;66.10;;;;;;5071324;28;20048;-63
2023/04/06 08:48:12;;;;;;;8.90;6.50;;;18.50;66.00;;;;;;5072271;28;20140;-63
2023/04/06 08:50:41;;;;;;;8.45;6.10;;;18.70;65.60;;;;;;5070713;28;20071;-63
2023/04/06 08:53:08;;;;;;;10.18;6.78;;;18.20;65.90;;;;;;5072124;28;20461;-63
2023/04/06 08:55:36;;;;;;;9.32;6.78;;;18.50;65.60;;;;;;5071813;28;20407;-64
2023/04/06 08:58:07;;;;;;;9.80;6.80;;;18.90;64.60;;;;;;5070705;28;20048;-63
2023/04/06 09:00:37;;;;;;;7.35;6.55;;;19.20;65.10;;;;;;5072271;28;20144;-63
2023/04/06 09:03:05;;;;;;;9.20;7.30;;;19.60;65.20;;;;;;5071992;28;20041;-64
2023/04/06 09:05:32;;;;;;;9.35;7.10;;;19.70;63.80;;;;;;5069246;28;20106;-63
2023/04/06 09:08:01;;;;;;;9.70;6.70;;;19.80;63.60;;;;;;5069655;28;20052;-63
2023/04/06 09:10:29;;;;;;;8.40;7.07;;;19.50;61.60;;;;;;5071832;28;20602;-63
2023/04/06 09:13:06;;;;;;;9.52;6.32;;;19.40;62.80;;;;;;5070054;28;20101;-62
2023/04/06 09:15:33;;;;;;;9.70;6.20;;;19.70;61.30;;;;;;5071810;28;20041;-63
2023/04/06 09:18:00;;;;;;;10.38;6.50;;;20.00;62.40;;;;;;5069318;28;20097;-63
2023/04/06 09:20:28;;;;;;;9.38;6.93;;;19.50;62.10;;;;;;5071836;28;20048;-63
2023/04/06 09:22:55;;;;;;;11.15;7.38;;;18.60;62.50;;;;;;5071829;28;20412;-63
2023/04/06 09:25:26;;;;;;;10.10;7.22;;;18.20;63.00;;;;;;5070960;28;20488;-63
2023/04/06 09:28:01;;;;;;;10.23;7.35;;;17.80;64.40;;;;;;5071798;28;20052;-63
2023/04/06 09:30:27;;;;;;;9.07;7.22;;;17.30;65.30;;;;;;5070936;28;20048;-63
2023/04/06 09:32:56;;;;;;;8.50;6.72;;;16.90;65.50;;;;;;5071179;28;20052;-63
2023/04/06 09:35:26;;;;;;;9.63;7.38;;;16.50;65.70;;;;;;5070488;28;20041;-63
2023/04/06 09:37:54;;;;;;;11.70;7.95;;;16.20;66.80;;;;;;5070629;28;20071;-62
2023/04/06 09:40:22;;;;;;;13.98;7.43;;;15.70;67.40;;;;;;5069123;28;20532;-62
2023/04/06 09:42:54;;;;;;;12.30;8.18;;;15.50;68.10;;;;;;5071433;28;20048;-62
2023/04/06 09:45:21;;;;;;;10.35;8.00;;;15.00;68.50;;;;;;5071639;28;20048;-63
2023/04/06 09:47:49;;;;;;;9.07;7.53;;;14.90;68.80;;;;;;5071038;28;20080;-62
2023/04/06 09:50:16;;;;;;;10.60;7.95;;;14.40;68.80;;;;;;5068395;28;20044;-63
2023/04/06 09:52:49;;;;;;;11.90;7.80;;;14.10;69.90;;;;;;5060884;28;20415;-63
2023/04/06 09:55:23;;;;;;;12.27;8.27;;;13.70;70.40;;;;;;5067455;28;20090;-63
2023/04/06 09:57:58;;;;;;;16.70;9.63;;;13.90;70.90;;;;;;5102341;28;20048;-63
2023/04/06 10:00:28;;;;;;;14.77;9.70;;;13.70;70.10;;;;;;5067778;28;20052;-63
2023/04/06 10:03:00;;;;;;;15.10;10.30;;;13.80;70.30;;;;;;5068873;28;20048;-63
2023/04/06 10:05:34;;;;;;;16.15;9.52;;;13.80;69.00;;;;;;5068711;28;20072;-63
2023/04/06 10:08:06;;;;;;;15.60;10.45;;;14.00;70.00;;;;;;5068953;28;20431;-63
2023/04/06 10:10:33;;;;;;;15.35;10.25;;;14.20;69.10;;;;;;5066520;28;20094;-62
2023/04/06 10:13:01;;;;;;;18.35;11.05;;;14.40;69.50;;;;;;5070750;28;20503;-63
2023/04/06 10:15:30;;;;;;;16.08;10.73;;;14.70;68.70;;;;;;5068014;28;20041;-63
2023/04/06 10:17:57;;;;;;;15.68;10.82;;;14.80;68.30;;;;;;5073555;28;20518;-62
2023/04/06 10:20:28;;;;;;;19.15;11.90;;;14.90;67.30;;;;;;5071259;28;20052;-63
2023/04/06 10:23:02;;;;;;;15.20;10.70;;;14.90;67.10;;;;;;5072509;28;20067;-63
2023/04/06 10:25:30;;;;;;;17.23;11.45;;;15.00;66.70;;;;;;5074046;28;20061;-63
2023/04/06 10:28:07;;;;;;;17.92;12.30;;;15.10;67.00;;;;;;5071279;28;20052;-63
2023/04/06 10:30:34;;;;;;;15.70;11.35;;;15.50;67.10;;;;;;5104692;28;20056;-63
2023/04/06 10:33:02;;;;;;;16.55;12.05;;;15.60;66.80;;;;;;5070305;28;20045;-64
2023/04/06 10:35:38;;;;;;;16.65;11.57;;;15.70;65.90;;;;;;5072108;28;20072;-63
2023/04/06 10:38:06;;;;;;;17.48;11.13;;;15.60;65.50;;;;;;5071242;28;20511;-63
2023/04/06 10:40:33;;;;;;;16.38;11.88;;;16.30;66.40;;;;;;5073734;28;20507;-63
2023/04/06 10:43:10;;;;;;;16.15;11.57;;;16.70;65.10;;;;;;5072932;28;20454;-63
2023/04/06 10:45:37;;;;;;;22.30;11.02;;;16.70;64.90;;;;;;5071626;28;20047;-63
2023/04/06 10:48:14;;;;;;;19.27;12.85;;;16.70;64.60;;;;;;5072102;28;20052;-63
2023/04/06 10:50:42;;;;;;;19.67;12.35;;;16.70;65.20;;;;;;5071004;28;20075;-63
2023/04/06 10:53:09;;;;;;;18.48;13.82;;;16.90;65.40;;;;;;5074287;28;20094;-63
2023/04/06 10:55:40;;;;;;;19.35;14.00;;;16.60;64.70;;;;;;5074381;28;20094;-62
2023/04/06 10:58:09;;;;;;;24.63;15.82;;;16.60;63.90;;;;;;5074059;28;20071;-63
2023/04/06 11:00:36;;;;;;;18.55;13.80;;;16.30;65.30;;;;;;5072640;28;20056;-63
2023/04/06 11:03:03;;;;;;;22.48;15.23;;;15.70;66.20;;;;;;5072825;28;20048;-63
2023/04/06 11:05:30;;;;;;;21.90;15.77;;;15.40;66.20;;;;;;5073056;28;20056;-63
2023/04/06 11:07:57;;;;;;;21.20;15.20;;;15.60;67.60;;;;;;5073147;28;20056;-63
2023/04/06 11:10:24;;;;;;;22.92;15.85;;;15.70;67.00;;;;;;5073589;28;20048;-63
2023/04/06 11:12:55;;;;;;;25.42;16.75;;;15.70;66.30;;;;;;5073852;28;20439;-63
2023/04/06 11:15:23;;;;;;;24.98;17.63;;;16.00;66.10;;;;;;5072134;28;20131;-63
2023/04/06 11:17:50;;;;;;;22.33;16.58;;;16.10;66.20;;;;;;5073062;28;20059;-63
2023/04/06 11:20:19;;;;;;;24.63;16.75;;;16.40;66.10;;;;;;5073908;28;20052;-63
2023/04/06 11:22:50;;;;;;;23.45;16.88;;;16.40;66.20;;;;;;5072894;28;20059;-63
2023/04/06 11:25:18;;;;;;;28.38;17.92;;;16.10;66.10;;;;;;5072197;28;20151;-62
2023/04/06 11:27:46;;;;;;;26.85;17.23;;;16.10;66.20;;;;;;5072040;28;20420;-63
2023/04/06 11:30:14;;;;;;;25.65;17.88;;;16.60;66.40;;;;;;5073864;28;20051;-62
2023/04/06 11:32:43;;;;;;;24.67;16.92;;;16.70;65.70;;;;;;5072928;28;20079;-62
2023/04/06 11:35:13;;;;;;;29.10;17.38;;;16.90;66.00;;;;;;5073577;28;20060;-62
2023/04/06 11:37:40;;;;;;;24.92;18.40;;;16.60;64.50;;;;;;5071411;28;20044;-64
2023/04/06 11:40:10;;;;;;;23.35;16.35;;;16.40;65.30;;;;;;5071817;28;20060;-64
2023/04/06 11:42:37;;;;;;;23.92;16.90;;;16.30;65.80;;;;;;5072168;28;20078;-62
2023/04/06 11:45:05;;;;;;;23.80;16.65;;;16.40;66.50;;;;;;5072381;28;20519;-63
2023/04/06 11:47:34;;;;;;;28.67;17.05;;;16.20;66.70;;;;;;5071815;28;20385;-64
2023/04/06 11:50:09;;;;;;;23.00;16.80;;;16.10;66.90;;;;;;5070518;28;20487;-64
2023/04/06 11:52:36;;;;;;;24.58;16.40;;;15.90;66.50;;;;;;5071697;28;20152;-63
2023/04/06 11:55:13;;;;;;;30.27;16.67;;;16.10;67.10;;;;;;5072272;28;20060;-63
2023/04/06 11:57:41;;;;;;;21.73;15.32;;;16.10;67.40;;;;;;5073070;28;20475;-62
2023/04/06 12:00:09;;;;;;;20.15;14.57;;;16.20;67.60;;;;;;5072711;28;20105;-62
2023/04/06 12:02:36;;;;;;;21.85;15.77;;;16.00;67.50;;;;;;5072146;28;20053;-63
2023/04/06 12:05:04;;;;;;;22.10;15.45;;;16.00;66.90;;;;;;5072889;28;20052;-64
2023/04/06 12:07:33;;;;;;;24.17;16.77;;;15.90;67.50;;;;;;5071181;28;20041;-63
2023/04/06 12:10:00;;;;;;;26.27;16.35;;;15.60;67.70;;;;;;5071985;28;20056;-62
2023/04/06 12:12:27;;;;;;;22.70;16.02;;;15.50;68.10;;;;;;5071680;28;20175;-62
2023/04/06 12:14:53;;;;;;;23.63;15.65;;;15.60;69.40;;;;;;5072827;28;20119;-63
2023/04/06 12:17:21;;;;;;;26.55;17.33;;;15.50;68.80;;;;;;5072734;28;20060;-62
2023/04/06 12:19:48;;;;;;;26.35;16.40;;;15.60;69.40;;;;;;5072825;28;20119;-63
2023/04/06 12:22:15;;;;;;;26.08;17.20;;;15.70;69.40;;;;;;5071102;28;20064;-62
2023/04/06 12:24:43;;;;;;;26.48;17.05;;;15.30;68.40;;;;;;5071549;28;20385;-63
2023/04/06 12:27:11;;;;;;;26.13;17.30;;;15.20;68.20;;;;;;5072788;28;20040;-62
2023/04/06 12:29:38;;;;;;;28.00;17.17;;;14.90;68.50;;;;;;5070631;28;20048;-64
2023/04/06 12:32:05;;;;;;;22.10;16.38;;;14.80;68.20;;;;;;5071351;28;20052;-63
2023/04/06 12:34:32;;;;;;;24.65;16.95;;;14.60;68.10;;;;;;5068859;28;20094;-63
2023/04/06 12:36:59;;;;;;;29.20;17.75;;;14.70;69.00;;;;;;5071250;28;20063;-63
2023/04/06 12:39:27;;;;;;;31.42;18.15;;;14.50;69.10;;;;;;5071566;28;20051;-63
2023/04/06 12:41:57;;;;;;;26.70;17.77;;;14.40;68.80;;;;;;5070732;28;20052;-63
2023/04/06 12:44:23;;;;;;;26.05;17.92;;;14.20;68.80;;;;;;5072222;28;20157;-62
2023/04/06 12:46:51;;;;;;;27.05;17.75;;;14.30;69.70;;;;;;5068455;28;20102;-62